Bancroft, Canada
Current Conditions -  °F | °C
As of 11:00 AM on Thursday 30 Oct 2014 (Local Time) from CYPQ Reporting Station
Broken Clouds Broken Clouds  
Wind Chill: 43°   Ceiling: 3700
Heat Index: 43°   Visibility: 9mi
Dew Point: 36°   Wind: 2mph
Humidity: 76%   Direction: NA
Pressure: 30.06"   Gusts: NA
Location:  45.06°N, 77.85°W
Report Text: CYPQ 301500Z AUTO VRB02KT 9SM FEW022 BKN037 06/02 A3006 RMK SLP185
Loading
Personal Weather Stations






























Interactive Weather Map
Tropical Storm Tracking
New forecast layout! Learn more

10-Day Weather Forecast

Advertisements
Track Severe Weather on mobile